createdAt,value
2023-01-22T00:00:48.035Z,34.12
2023-01-22T00:02:10.154Z,29.48
2023-01-22T00:03:12.148Z,32.73
2023-01-22T00:04:15.227Z,29.90
2023-01-22T00:05:17.235Z,33.91
2023-01-22T00:06:19.284Z,35.47
2023-01-22T00:07:21.083Z,28.44
2023-01-22T00:08:23.464Z,24.17
2023-01-22T00:09:25.336Z,25.94
2023-01-22T00:10:27.050Z,24.10
2023-01-22T00:11:28.822Z,20.05
2023-01-22T00:12:30.562Z,18.29
2023-01-22T00:13:32.722Z,18.22
2023-01-22T00:14:34.512Z,17.59
2023-01-22T00:15:39.105Z,18.33
2023-01-22T00:16:41.469Z,19.85
2023-01-22T00:17:43.257Z,18.38
2023-01-22T00:18:45.195Z,18.26
2023-01-22T00:19:47.230Z,16.68
2023-01-22T00:20:51.494Z,17.56
2023-01-22T00:21:53.349Z,16.71
2023-01-22T00:22:55.251Z,14.77
2023-01-22T00:23:57.026Z,15.15
2023-01-22T00:24:58.900Z,14.06
2023-01-22T00:26:07.769Z,14.88
2023-01-22T00:27:09.705Z,15.97
2023-01-22T00:28:12.460Z,15.62
2023-01-22T00:29:14.495Z,16.98
2023-01-22T00:30:16.960Z,17.67
2023-01-22T00:31:20.379Z,16.18
2023-01-22T00:32:23.065Z,17.80
2023-01-22T00:33:25.182Z,17.09
2023-01-22T00:34:26.986Z,15.38
2023-01-22T00:35:28.872Z,14.32
2023-01-22T00:36:30.752Z,15.94
2023-01-22T00:37:32.558Z,15.76
2023-01-22T00:38:35.390Z,15.53
2023-01-22T00:39:37.257Z,14.93
2023-01-22T00:40:39.063Z,15.10
2023-01-22T00:41:42.161Z,15.34
2023-01-22T00:42:44.135Z,14.12
2023-01-22T00:43:46.962Z,13.36
2023-01-22T00:44:49.118Z,13.08
2023-01-22T00:45:51.460Z,13.95
2023-01-22T00:46:54.892Z,13.69
2023-01-22T00:47:56.818Z,13.43
2023-01-22T00:48:58.710Z,12.87
2023-01-22T00:50:00.768Z,12.44
2023-01-22T00:51:02.669Z,12.58
2023-01-22T00:52:04.751Z,12.80
2023-01-22T00:53:06.523Z,12.42
2023-01-22T00:54:09.143Z,13.07
2023-01-22T00:55:10.903Z,13.17
2023-01-22T00:56:14.390Z,13.37
2023-01-22T00:57:19.635Z,12.12
2023-01-22T00:58:22.129Z,12.95
2023-01-22T00:59:24.472Z,13.59
2023-01-22T01:00:26.452Z,13.46
2023-01-22T01:01:28.346Z,17.83
2023-01-22T01:02:32.202Z,21.43
2023-01-22T01:03:36.704Z,20.57
2023-01-22T01:04:39.022Z,16.71
2023-01-22T01:05:40.789Z,14.70
2023-01-22T01:06:42.625Z,14.40
2023-01-22T01:07:47.712Z,14.66
2023-01-22T01:08:50.736Z,14.71
2023-01-22T01:09:52.533Z,14.94
2023-01-22T01:10:57.395Z,13.47
2023-01-22T01:12:00.802Z,13.46
2023-01-22T01:13:02.622Z,12.99
2023-01-22T01:14:04.705Z,12.51
2023-01-22T01:15:07.397Z,13.16
2023-01-22T01:16:17.664Z,13.30
2023-01-22T01:17:19.993Z,13.18
2023-01-22T01:18:22.296Z,12.34
2023-01-22T01:19:24.161Z,12.90
2023-01-22T01:20:26.133Z,12.99
2023-01-22T01:21:28.718Z,13.33
2023-01-22T01:22:30.652Z,13.88
2023-01-22T01:23:32.377Z,13.74
2023-01-22T01:24:36.575Z,13.36
2023-01-22T01:25:41.187Z,14.22
2023-01-22T01:26:43.529Z,14.39
2023-01-22T01:27:45.270Z,14.09
2023-01-22T01:28:48.188Z,13.95
2023-01-22T01:29:50.112Z,14.00
2023-01-22T01:30:52.321Z,13.88
2023-01-22T01:31:54.785Z,14.09
2023-01-22T01:32:58.144Z,14.82
2023-01-22T01:33:59.971Z,14.67
2023-01-22T01:35:02.906Z,15.14
2023-01-22T01:36:10.363Z,13.78
2023-01-22T01:37:12.406Z,14.33
2023-01-22T01:38:14.180Z,14.61
2023-01-22T01:39:17.644Z,15.49
2023-01-22T01:40:19.693Z,15.26
2023-01-22T01:41:25.967Z,14.42
2023-01-22T01:42:34.128Z,15.10
2023-01-22T01:43:36.541Z,14.78
2023-01-22T01:44:40.557Z,15.64
2023-01-22T01:45:42.729Z,15.53
2023-01-22T01:46:51.505Z,14.42
2023-01-22T01:47:57.182Z,14.57
2023-01-22T01:48:59.139Z,15.96
2023-01-22T01:50:01.982Z,15.88
2023-01-22T01:51:16.094Z,14.96
2023-01-22T01:52:19.317Z,15.65
2023-01-22T01:53:21.411Z,15.43
2023-01-22T01:54:24.377Z,15.63
2023-01-22T01:55:31.562Z,16.07
2023-01-22T01:56:39.560Z,14.99
2023-01-22T01:57:42.572Z,15.11
2023-01-22T01:58:47.280Z,14.75
2023-01-22T01:59:52.727Z,15.11
2023-01-22T02:01:02.284Z,15.97
2023-01-22T02:02:04.272Z,17.05
2023-01-22T02:03:06.219Z,15.90
2023-01-22T02:04:08.939Z,16.63
2023-01-22T02:05:11.921Z,16.34
2023-01-22T02:06:18.841Z,15.70
2023-01-22T02:07:21.080Z,15.76
2023-01-22T02:08:24.019Z,15.23
2023-01-22T02:09:27.556Z,16.41
2023-01-22T02:10:29.460Z,16.05
2023-01-22T02:11:34.160Z,16.47
2023-01-22T02:12:36.065Z,17.62
2023-01-22T02:13:44.345Z,20.62
2023-01-22T02:14:49.933Z,26.10
2023-01-22T02:15:51.781Z,28.36
2023-01-22T02:17:22.414Z,32.07
2023-01-22T02:18:25.963Z,38.61
2023-01-22T02:19:27.890Z,38.18
2023-01-22T02:20:34.504Z,33.55
2023-01-22T02:21:44.783Z,31.71
2023-01-22T02:22:46.837Z,31.44
2023-01-22T02:23:48.633Z,32.45
2023-01-22T02:24:51.230Z,33.50
2023-01-22T02:25:53.347Z,29.04
2023-01-22T02:26:55.152Z,25.84
2023-01-22T02:27:57.196Z,24.13
2023-01-22T02:28:59.018Z,19.70
2023-01-22T02:30:03.420Z,19.96
2023-01-22T02:31:05.437Z,18.97
2023-01-22T02:32:08.838Z,18.40
2023-01-22T02:33:11.383Z,17.02
2023-01-22T02:34:15.750Z,16.54
2023-01-22T02:35:18.872Z,16.93
2023-01-22T02:36:21.406Z,16.70
2023-01-22T02:37:23.631Z,15.84
2023-01-22T02:38:27.679Z,15.40
2023-01-22T02:39:30.543Z,15.63
2023-01-22T02:40:34.340Z,16.01
2023-01-22T02:41:36.241Z,16.49
2023-01-22T02:42:38.049Z,16.35
2023-01-22T02:43:40.079Z,16.20
2023-01-22T02:44:42.095Z,14.59
2023-01-22T02:45:44.156Z,15.30
2023-01-22T02:46:46.343Z,15.45
2023-01-22T02:47:48.443Z,16.22
2023-01-22T02:48:50.288Z,15.72
2023-01-22T02:49:52.259Z,15.52
2023-01-22T02:50:54.258Z,14.89
2023-01-22T02:51:56.283Z,15.00
2023-01-22T02:52:58.398Z,16.21
2023-01-22T02:54:00.489Z,16.81
2023-01-22T02:55:02.851Z,15.83
2023-01-22T02:56:10.906Z,15.25
2023-01-22T02:57:13.861Z,15.78
2023-01-22T02:58:17.233Z,15.31
2023-01-22T02:59:19.125Z,14.73
2023-01-22T03:00:21.996Z,14.23
2023-01-22T03:01:25.354Z,14.82
2023-01-22T03:02:29.012Z,15.73
2023-01-22T03:03:31.761Z,16.06
2023-01-22T03:04:33.687Z,15.45
2023-01-22T03:05:35.563Z,14.41
2023-01-22T03:06:45.485Z,13.26
2023-01-22T03:07:47.551Z,14.34
2023-01-22T03:08:54.529Z,13.81
2023-01-22T03:09:56.551Z,14.01
2023-01-22T03:10:59.100Z,13.99
2023-01-22T03:12:03.020Z,14.39
2023-01-22T03:13:24.991Z,14.24
2023-01-22T03:14:46.372Z,13.76
2023-01-22T03:16:07.349Z,14.96
2023-01-22T03:17:28.468Z,17.82
2023-01-22T03:18:50.631Z,16.52
2023-01-22T03:20:12.562Z,14.92
2023-01-22T03:21:15.926Z,16.54
2023-01-22T03:22:20.037Z,15.37
2023-01-22T03:23:21.961Z,14.22
2023-01-22T03:24:23.797Z,13.28
2023-01-22T03:25:26.454Z,13.18
2023-01-22T03:26:31.526Z,14.18
2023-01-22T03:27:34.120Z,12.75
2023-01-22T03:28:36.687Z,12.79
2023-01-22T03:29:38.654Z,13.17
2023-01-22T03:30:41.630Z,14.74
2023-01-22T03:31:48.385Z,14.27
2023-01-22T03:32:50.395Z,13.78
2023-01-22T03:33:52.340Z,14.17
2023-01-22T03:34:54.240Z,14.23
2023-01-22T03:36:01.910Z,14.00
2023-01-22T03:37:04.798Z,13.72
2023-01-22T03:38:06.704Z,14.41
2023-01-22T03:39:10.710Z,15.17
2023-01-22T03:40:12.660Z,14.64
2023-01-22T03:41:17.195Z,14.95
2023-01-22T03:42:19.616Z,16.45
2023-01-22T03:43:21.526Z,15.83
2023-01-22T03:44:23.506Z,15.84
2023-01-22T03:45:25.403Z,14.89
2023-01-22T03:46:27.978Z,14.31
2023-01-22T03:47:31.324Z,14.94
2023-01-22T03:48:33.705Z,14.62
2023-01-22T03:49:35.520Z,14.26
2023-01-22T03:50:39.977Z,14.15
2023-01-22T03:51:43.657Z,13.65
2023-01-22T03:52:45.611Z,13.36
2023-01-22T03:53:48.763Z,12.89
2023-01-22T03:54:50.738Z,12.36
2023-01-22T03:56:01.275Z,13.13
2023-01-22T03:57:03.421Z,13.35
2023-01-22T03:58:07.371Z,13.13
2023-01-22T03:59:11.621Z,12.83
2023-01-22T04:00:14.143Z,12.56
2023-01-22T04:01:21.319Z,13.74
2023-01-22T04:02:23.186Z,12.83
2023-01-22T04:03:35.449Z,12.33
2023-01-22T04:04:37.471Z,12.71
2023-01-22T04:05:39.935Z,12.45
2023-01-22T04:06:41.766Z,12.39
2023-01-22T04:07:43.784Z,12.26
2023-01-22T04:08:48.643Z,12.71
2023-01-22T04:09:52.064Z,12.69
2023-01-22T04:10:54.266Z,13.28
2023-01-22T04:11:56.055Z,13.15
2023-01-22T04:12:57.882Z,12.86
2023-01-22T04:13:59.743Z,13.58
2023-01-22T04:15:05.201Z,12.28
2023-01-22T04:16:07.626Z,13.35
2023-01-22T04:17:28.185Z,13.26
2023-01-22T04:18:47.293Z,12.25
2023-01-22T04:20:07.460Z,12.57
2023-01-22T04:21:16.522Z,11.55
2023-01-22T04:22:25.485Z,12.69
2023-01-22T04:23:27.982Z,12.79
2023-01-22T04:24:29.768Z,12.56
2023-01-22T04:25:31.590Z,12.44
2023-01-22T04:26:33.556Z,12.14
2023-01-22T04:27:37.900Z,11.85
2023-01-22T04:28:39.908Z,12.10
2023-01-22T04:29:41.883Z,11.68
2023-01-22T04:30:46.471Z,11.59
2023-01-22T04:32:09.142Z,11.86
2023-01-22T04:33:31.545Z,11.21
2023-01-22T04:34:40.976Z,11.36
2023-01-22T04:35:55.435Z,11.85
2023-01-22T04:36:57.231Z,11.53
2023-01-22T04:38:02.754Z,12.03
2023-01-22T04:39:04.641Z,11.81
2023-01-22T04:40:07.612Z,11.66
2023-01-22T04:41:11.440Z,11.26
2023-01-22T04:42:13.264Z,11.58
2023-01-22T04:43:15.484Z,10.89
2023-01-22T04:44:17.235Z,10.74
2023-01-22T04:45:20.361Z,10.92
2023-01-22T04:46:22.477Z,10.74
2023-01-22T04:47:24.557Z,11.06
2023-01-22T04:48:26.429Z,10.99
2023-01-22T04:49:28.602Z,11.06
2023-01-22T04:50:33.249Z,10.98
2023-01-22T04:51:35.009Z,10.76
2023-01-22T04:52:36.809Z,11.23
2023-01-22T04:53:38.785Z,10.79
2023-01-22T04:54:41.768Z,10.93
2023-01-22T04:55:43.670Z,10.72
2023-01-22T04:56:46.558Z,10.83
2023-01-22T04:57:49.169Z,10.28
2023-01-22T04:58:51.208Z,10.34
2023-01-22T04:59:53.071Z,10.33
2023-01-22T05:00:56.566Z,9.99
2023-01-22T05:01:58.457Z,9.78
2023-01-22T05:03:03.600Z,10.26
2023-01-22T05:04:06.449Z,10.30
2023-01-22T05:05:09.926Z,10.99
2023-01-22T05:06:11.799Z,10.41
2023-01-22T05:07:14.479Z,11.26
2023-01-22T05:08:17.162Z,11.24
2023-01-22T05:09:19.624Z,11.43
2023-01-22T05:10:27.559Z,10.62
2023-01-22T05:11:29.948Z,9.95
2023-01-22T05:12:36.967Z,10.22
2023-01-22T05:13:38.872Z,10.25
2023-01-22T05:14:40.992Z,10.74
2023-01-22T05:15:43.099Z,10.23
2023-01-22T05:16:49.154Z,10.44
2023-01-22T05:17:50.970Z,10.28
2023-01-22T05:18:52.717Z,10.52
2023-01-22T05:19:54.807Z,10.21
2023-01-22T05:20:56.773Z,9.91
2023-01-22T05:22:01.839Z,9.98
2023-01-22T05:23:06.384Z,10.41
2023-01-22T05:24:09.821Z,10.46
2023-01-22T05:25:13.453Z,11.46
2023-01-22T05:26:15.495Z,10.60
2023-01-22T05:27:26.617Z,11.02
2023-01-22T05:28:35.990Z,11.33
2023-01-22T05:29:56.147Z,10.53
2023-01-22T05:31:13.488Z,11.04
2023-01-22T05:32:37.111Z,10.72
2023-01-22T05:33:42.781Z,11.00
2023-01-22T05:34:45.666Z,10.57
2023-01-22T05:35:57.362Z,10.53
2023-01-22T05:36:59.213Z,10.26
2023-01-22T05:38:02.592Z,11.08
2023-01-22T05:39:04.431Z,11.10
2023-01-22T05:40:07.425Z,10.27
2023-01-22T05:41:10.311Z,10.70
2023-01-22T05:42:16.247Z,10.90
2023-01-22T05:43:20.558Z,11.25
2023-01-22T05:44:28.348Z,11.09
2023-01-22T05:45:30.735Z,10.68
2023-01-22T05:47:22.183Z,10.65
2023-01-22T05:48:38.096Z,9.88
2023-01-22T05:49:49.186Z,10.54
2023-01-22T05:50:51.856Z,10.60
2023-01-22T05:51:53.683Z,10.29
2023-01-22T05:52:55.916Z,10.18
2023-01-22T05:53:57.905Z,10.46
2023-01-22T05:55:03.114Z,10.01
2023-01-22T05:56:11.812Z,10.71
2023-01-22T05:57:14.737Z,10.54
2023-01-22T05:58:16.524Z,10.51
2023-01-22T05:59:19.840Z,10.94
2023-01-22T06:00:30.571Z,10.53
2023-01-22T06:01:33.366Z,11.14
2023-01-22T06:02:35.901Z,10.11
2023-01-22T06:03:38.319Z,9.98
2023-01-22T06:04:41.028Z,10.44
2023-01-22T06:06:06.687Z,11.27
2023-01-22T06:07:08.733Z,10.43
2023-01-22T06:08:10.783Z,9.95
2023-01-22T06:09:19.428Z,10.31
2023-01-22T06:10:21.307Z,11.03
2023-01-22T06:11:23.435Z,10.28
2023-01-22T06:12:25.256Z,10.87
2023-01-22T06:13:28.153Z,10.35
2023-01-22T06:14:32.567Z,10.99
2023-01-22T06:15:34.558Z,11.02
2023-01-22T06:16:51.866Z,10.00
2023-01-22T06:18:02.577Z,10.65
2023-01-22T06:19:04.471Z,11.11
2023-01-22T06:20:13.705Z,11.05
2023-01-22T06:21:15.647Z,10.70
2023-01-22T06:22:19.243Z,10.47
2023-01-22T06:23:30.503Z,10.55
2023-01-22T06:24:32.777Z,11.23
2023-01-22T06:25:34.880Z,10.25
2023-01-22T06:26:45.775Z,10.47
2023-01-22T06:27:48.428Z,10.99
2023-01-22T06:28:50.404Z,10.93
2023-01-22T06:29:52.170Z,10.38
2023-01-22T06:30:58.958Z,10.34
2023-01-22T06:32:01.049Z,10.54
2023-01-22T06:33:04.153Z,10.45
2023-01-22T06:34:07.341Z,9.97
2023-01-22T06:35:09.318Z,9.55
2023-01-22T06:36:11.274Z,9.87
2023-01-22T06:37:13.122Z,10.53
2023-01-22T06:38:15.063Z,10.45
2023-01-22T06:39:16.891Z,9.99
2023-01-22T06:40:24.109Z,9.88
2023-01-22T06:41:26.244Z,10.23
2023-01-22T06:42:31.027Z,10.51
2023-01-22T06:43:32.758Z,10.89
2023-01-22T06:44:34.637Z,11.92
2023-01-22T06:45:38.521Z,11.38
2023-01-22T06:46:41.890Z,12.62
2023-01-22T06:47:46.251Z,11.79
2023-01-22T06:48:49.841Z,11.18
2023-01-22T06:49:51.871Z,11.83
2023-01-22T06:50:57.850Z,14.77
2023-01-22T06:51:59.694Z,15.54
2023-01-22T06:53:01.764Z,13.12
2023-01-22T06:54:03.707Z,15.04
2023-01-22T06:55:06.046Z,17.79
2023-01-22T06:56:08.287Z,13.13
2023-01-22T06:57:10.354Z,13.48
2023-01-22T06:58:13.086Z,14.07
2023-01-22T06:59:14.842Z,14.76
2023-01-22T07:00:17.740Z,19.84
2023-01-22T07:01:20.130Z,26.25
2023-01-22T07:02:22.144Z,18.36
2023-01-22T07:03:23.962Z,14.09
2023-01-22T07:04:25.832Z,15.97
2023-01-22T07:05:27.895Z,14.05
2023-01-22T07:06:29.793Z,12.70
2023-01-22T07:07:32.251Z,13.75
2023-01-22T07:08:34.409Z,14.40
2023-01-22T07:09:36.187Z,13.56
2023-01-22T07:10:38.070Z,14.28
2023-01-22T07:11:39.969Z,14.18
2023-01-22T07:12:41.899Z,13.98
2023-01-22T07:13:43.678Z,14.31
2023-01-22T07:14:45.431Z,13.17
2023-01-22T07:15:47.334Z,12.42
2023-01-22T07:16:49.141Z,12.43
2023-01-22T07:17:52.689Z,12.49
2023-01-22T07:18:54.567Z,10.96
2023-01-22T07:19:56.392Z,10.89
2023-01-22T07:21:04.056Z,11.81
2023-01-22T07:22:05.823Z,11.67
2023-01-22T07:23:09.408Z,12.03
2023-01-22T07:24:11.557Z,11.29
2023-01-22T07:25:13.824Z,11.45
2023-01-22T07:26:17.139Z,10.57
2023-01-22T07:27:18.940Z,11.13
2023-01-22T07:28:20.900Z,11.85
2023-01-22T07:29:22.594Z,11.62
2023-01-22T07:30:24.434Z,11.61
2023-01-22T07:31:26.605Z,12.10
2023-01-22T07:32:28.467Z,11.94
2023-01-22T07:33:30.325Z,12.41
2023-01-22T07:34:32.299Z,11.50
2023-01-22T07:35:34.068Z,11.42
2023-01-22T07:36:35.978Z,11.76
2023-01-22T07:37:37.731Z,12.03
2023-01-22T07:38:39.440Z,10.59
2023-01-22T07:39:41.152Z,10.70
2023-01-22T07:40:42.893Z,11.50
2023-01-22T07:41:44.739Z,11.01
2023-01-22T07:42:46.657Z,10.64
2023-01-22T07:43:49.361Z,10.48
2023-01-22T07:44:51.218Z,9.90
2023-01-22T07:45:54.045Z,10.16
2023-01-22T07:46:55.900Z,10.33
2023-01-22T07:47:59.835Z,10.13
2023-01-22T07:49:01.955Z,10.38
2023-01-22T07:50:05.352Z,9.81
2023-01-22T07:51:07.757Z,9.88
2023-01-22T07:52:09.578Z,9.80
2023-01-22T07:53:11.902Z,33.79
2023-01-22T07:54:13.704Z,35.75
2023-01-22T07:55:16.215Z,19.25
2023-01-22T07:56:19.240Z,17.70
2023-01-22T07:57:21.157Z,24.79
2023-01-22T07:58:23.485Z,29.53
2023-01-22T07:59:25.355Z,42.50
2023-01-22T08:00:27.461Z,33.02
2023-01-22T08:01:29.304Z,20.85
2023-01-22T08:02:31.495Z,13.58
2023-01-22T08:03:34.409Z,15.26
2023-01-22T08:04:36.178Z,18.90
2023-01-22T08:05:42.865Z,18.43
2023-01-22T08:06:44.686Z,22.28
2023-01-22T08:07:46.539Z,25.26
2023-01-22T08:08:48.700Z,25.83
2023-01-22T08:09:50.494Z,26.65
2023-01-22T08:10:52.352Z,23.73
2023-01-22T08:11:54.192Z,22.39
2023-01-22T08:12:56.427Z,18.22
2023-01-22T08:13:58.291Z,21.93
2023-01-22T08:15:00.168Z,19.34
2023-01-22T08:16:02.195Z,18.70
2023-01-22T08:17:04.214Z,16.14
2023-01-22T08:18:07.560Z,15.59
2023-01-22T08:19:10.095Z,15.42
2023-01-22T08:20:11.974Z,15.69
2023-01-22T08:21:13.735Z,13.31
2023-01-22T08:22:15.498Z,11.06
2023-01-22T08:23:17.543Z,11.86
2023-01-22T08:24:19.316Z,11.83
2023-01-22T08:25:21.244Z,11.93
2023-01-22T08:26:23.009Z,11.28
2023-01-22T08:27:24.898Z,11.43
2023-01-22T08:28:27.338Z,11.95
2023-01-22T08:29:29.208Z,11.74
2023-01-22T08:30:33.886Z,12.35
2023-01-22T08:31:38.343Z,10.33
2023-01-22T08:32:45.376Z,11.33
2023-01-22T08:33:47.238Z,13.02
2023-01-22T08:34:50.703Z,11.26
2023-01-22T08:35:52.683Z,10.90
2023-01-22T08:36:55.395Z,10.19
2023-01-22T08:38:01.433Z,10.67
2023-01-22T08:39:03.614Z,11.97
2023-01-22T08:40:07.723Z,12.59
2023-01-22T08:41:09.561Z,11.67
2023-01-22T08:42:11.323Z,12.03
2023-01-22T08:43:13.022Z,12.17
2023-01-22T08:44:14.851Z,12.61
2023-01-22T08:45:16.808Z,11.74
2023-01-22T08:46:18.882Z,12.51
2023-01-22T08:47:20.650Z,11.04
2023-01-22T08:48:22.645Z,12.25
2023-01-22T08:49:24.567Z,14.63
2023-01-22T08:50:28.924Z,15.30
2023-01-22T08:51:33.016Z,14.24
2023-01-22T08:52:35.235Z,13.55
2023-01-22T08:53:37.054Z,14.07
2023-01-22T08:54:39.001Z,13.50
2023-01-22T08:55:40.893Z,12.39
2023-01-22T08:56:42.633Z,12.31
2023-01-22T08:57:44.474Z,12.50
2023-01-22T08:58:49.147Z,14.51
2023-01-22T09:00:00.706Z,18.87
2023-01-22T09:01:03.431Z,19.83
2023-01-22T09:02:05.522Z,18.57
2023-01-22T09:03:07.534Z,16.36
2023-01-22T09:04:10.867Z,16.27
2023-01-22T09:05:12.730Z,20.17
2023-01-22T09:06:14.566Z,18.46
2023-01-22T09:07:16.405Z,16.47
2023-01-22T09:08:18.293Z,19.15
2023-01-22T09:09:20.215Z,25.19
2023-01-22T09:10:22.437Z,21.15
2023-01-22T09:11:24.351Z,13.77
2023-01-22T09:12:26.217Z,13.78
2023-01-22T09:13:28.077Z,13.05
2023-01-22T09:14:29.966Z,13.42
2023-01-22T09:15:32.197Z,14.39
2023-01-22T09:16:34.484Z,13.39
2023-01-22T09:17:36.413Z,14.59
2023-01-22T09:18:39.799Z,16.56
2023-01-22T09:19:41.566Z,15.06
2023-01-22T09:20:45.118Z,16.36
2023-01-22T09:21:46.897Z,18.50
2023-01-22T09:22:49.586Z,16.31
2023-01-22T09:23:51.515Z,14.12
2023-01-22T09:24:54.946Z,14.36
2023-01-22T09:25:56.769Z,15.64
2023-01-22T09:26:58.687Z,18.72
2023-01-22T09:28:01.358Z,17.14
2023-01-22T09:29:05.942Z,14.62
2023-01-22T09:30:09.713Z,14.35
2023-01-22T09:31:17.180Z,15.11
2023-01-22T09:32:19.112Z,17.31
2023-01-22T09:33:21.103Z,15.40
2023-01-22T09:34:23.446Z,17.36
2023-01-22T09:35:27.437Z,17.32
2023-01-22T09:36:30.236Z,16.52
2023-01-22T09:37:32.098Z,16.21
2023-01-22T09:38:34.799Z,16.36
2023-01-22T09:39:36.579Z,15.58
2023-01-22T09:40:52.919Z,15.69
2023-01-22T09:42:01.122Z,21.79
2023-01-22T09:43:32.677Z,27.73
2023-01-22T09:44:39.344Z,25.57
2023-01-22T09:45:42.010Z,22.63
2023-01-22T09:47:00.200Z,28.49
2023-01-22T09:48:09.785Z,31.14
2023-01-22T09:49:17.642Z,28.03
2023-01-22T09:50:24.239Z,28.43
2023-01-22T09:51:26.465Z,28.06
2023-01-22T09:52:32.844Z,28.87
2023-01-22T09:53:35.244Z,20.71
2023-01-22T09:54:37.395Z,16.76
2023-01-22T09:55:46.145Z,17.21
2023-01-22T09:56:52.021Z,20.78
2023-01-22T09:57:57.081Z,29.81
2023-01-22T09:59:04.669Z,32.00
2023-01-22T10:00:16.959Z,28.66
2023-01-22T10:01:19.851Z,26.80
2023-01-22T10:02:46.800Z,22.00
2023-01-22T10:04:03.727Z,21.44
2023-01-22T10:05:19.634Z,19.09
2023-01-22T10:06:23.600Z,21.39
2023-01-22T10:07:36.799Z,16.57
2023-01-22T10:08:44.764Z,14.93
2023-01-22T10:09:56.300Z,15.46
2023-01-22T10:11:01.068Z,15.37
2023-01-22T10:12:13.089Z,16.09
2023-01-22T10:13:20.474Z,15.30
2023-01-22T10:14:26.651Z,14.71
2023-01-22T10:15:28.508Z,14.48
2023-01-22T10:16:30.297Z,14.96
2023-01-22T10:17:35.994Z,13.82
2023-01-22T10:18:48.104Z,14.35
2023-01-22T10:19:57.719Z,15.92
2023-01-22T10:21:11.146Z,14.21
2023-01-22T10:22:22.582Z,14.98
2023-01-22T10:23:26.624Z,12.79
2023-01-22T10:24:30.154Z,13.61
2023-01-22T10:25:33.668Z,13.28
2023-01-22T10:26:54.555Z,11.77
2023-01-22T10:28:00.802Z,11.55
2023-01-22T10:29:15.148Z,11.47
2023-01-22T10:30:26.311Z,12.04
2023-01-22T10:31:35.342Z,12.42
2023-01-22T10:32:37.239Z,12.82
2023-01-22T10:33:39.103Z,11.98
2023-01-22T10:34:40.838Z,13.05
2023-01-22T10:35:47.027Z,12.80
2023-01-22T10:36:51.091Z,13.32
2023-01-22T10:37:56.431Z,13.15
2023-01-22T10:39:13.317Z,12.44
2023-01-22T10:40:40.960Z,13.70
2023-01-22T10:41:45.076Z,12.70
2023-01-22T10:43:19.963Z,12.69
2023-01-22T10:44:25.068Z,16.79
2023-01-22T10:45:27.185Z,20.48
2023-01-22T10:46:29.061Z,17.76
2023-01-22T10:47:31.065Z,15.46
2023-01-22T10:48:33.811Z,14.04
2023-01-22T10:49:35.848Z,14.46
2023-01-22T10:50:38.046Z,13.98
2023-01-22T10:51:44.089Z,14.89
2023-01-22T10:52:54.873Z,14.66
2023-01-22T10:53:58.928Z,14.38
2023-01-22T10:55:01.288Z,14.53
2023-01-22T10:56:07.988Z,13.96
2023-01-22T10:57:26.945Z,14.32
2023-01-22T10:58:36.605Z,14.35
2023-01-22T10:59:38.738Z,15.03
2023-01-22T11:00:51.436Z,15.02
2023-01-22T11:02:11.124Z,13.69
2023-01-22T11:03:29.099Z,13.57
2023-01-22T11:04:33.512Z,14.40
2023-01-22T11:05:37.096Z,13.76
2023-01-22T11:06:51.401Z,13.38
2023-01-22T11:08:05.329Z,12.59
2023-01-22T11:09:22.784Z,12.47
2023-01-22T11:10:46.827Z,12.93
2023-01-22T11:12:03.447Z,12.56
2023-01-22T11:13:33.581Z,13.39
2023-01-22T11:14:38.995Z,13.25
2023-01-22T11:15:51.433Z,13.52
2023-01-22T11:16:58.615Z,12.38
2023-01-22T11:18:03.323Z,12.69
2023-01-22T11:19:16.799Z,13.65
2023-01-22T11:20:49.097Z,12.98
2023-01-22T11:21:55.839Z,13.05
2023-01-22T11:23:10.062Z,12.93
2023-01-22T11:24:23.246Z,12.92
2023-01-22T11:25:29.038Z,12.75
2023-01-22T11:26:57.745Z,12.83
2023-01-22T11:28:21.034Z,12.83
2023-01-22T11:29:38.903Z,13.63
2023-01-22T11:31:13.204Z,12.69
2023-01-22T11:32:33.873Z,14.02
2023-01-22T11:34:16.634Z,16.36
2023-01-22T11:35:33.759Z,14.33
2023-01-22T11:37:14.191Z,14.02
2023-01-22T11:38:24.884Z,13.59
2023-01-22T11:39:51.195Z,14.35
2023-01-22T11:41:20.850Z,14.21
2023-01-22T11:42:46.364Z,13.93
2023-01-22T11:44:15.164Z,13.71
2023-01-22T11:45:45.599Z,14.42
2023-01-22T11:47:11.821Z,15.25
2023-01-22T11:48:42.805Z,15.48
2023-01-22T11:50:03.859Z,15.59
2023-01-22T11:51:22.693Z,15.60
2023-01-22T11:52:59.080Z,15.42
2023-01-22T11:54:21.390Z,15.64
2023-01-22T11:55:41.008Z,14.87
2023-01-22T11:56:50.184Z,14.99
2023-01-22T11:58:30.748Z,15.47
2023-01-22T11:59:51.777Z,16.12
2023-01-22T12:01:15.735Z,15.40
2023-01-22T12:02:29.640Z,15.51
2023-01-22T12:04:00.419Z,16.45
2023-01-22T12:05:05.766Z,16.30
2023-01-22T12:06:26.128Z,15.63
2023-01-22T12:07:37.827Z,16.59
2023-01-22T12:09:06.034Z,15.85
2023-01-22T12:10:38.166Z,15.69
2023-01-22T12:12:20.700Z,16.58
2023-01-22T12:13:57.428Z,16.48
2023-01-22T12:15:20.822Z,17.37
2023-01-22T12:16:46.330Z,16.60
2023-01-22T12:18:16.248Z,16.49
2023-01-22T12:19:45.725Z,16.97
2023-01-22T12:21:14.097Z,17.33
2023-01-22T12:22:41.097Z,18.38
2023-01-22T12:23:52.742Z,16.91
2023-01-22T12:24:58.721Z,16.43
2023-01-22T12:26:26.129Z,17.53
2023-01-22T12:28:00.192Z,18.51
2023-01-22T12:29:07.490Z,18.90
2023-01-22T12:30:45.480Z,19.96
2023-01-22T12:31:54.347Z,19.62
2023-01-22T12:33:00.386Z,20.31
2023-01-22T12:34:13.545Z,20.34
2023-01-22T12:35:21.235Z,20.63
2023-01-22T12:36:26.995Z,19.01
2023-01-22T12:37:58.493Z,19.73
2023-01-22T12:39:37.822Z,20.21
2023-01-22T12:41:17.164Z,18.52
2023-01-22T12:42:37.726Z,20.15
2023-01-22T12:44:03.409Z,20.28
2023-01-22T12:45:23.543Z,18.28
2023-01-22T12:47:04.443Z,18.91
2023-01-22T12:48:15.547Z,18.81
2023-01-22T12:49:17.458Z,19.07
2023-01-22T12:50:22.841Z,19.44
2023-01-22T12:51:35.394Z,18.39
2023-01-22T12:52:39.647Z,18.28
2023-01-22T12:53:41.762Z,20.34
2023-01-22T12:54:54.752Z,19.97
2023-01-22T12:56:06.874Z,20.39
2023-01-22T12:57:14.444Z,19.18
2023-01-22T12:58:28.621Z,19.77
2023-01-22T12:59:41.681Z,18.98
2023-01-22T13:00:43.765Z,19.27
2023-01-22T13:01:45.836Z,18.85
2023-01-22T13:02:47.864Z,18.56
2023-01-22T13:04:27.781Z,18.58
2023-01-22T13:05:29.528Z,19.04
2023-01-22T13:06:40.907Z,19.03
2023-01-22T13:07:42.929Z,18.67
2023-01-22T13:08:46.499Z,19.82
2023-01-22T13:09:59.776Z,19.99
2023-01-22T13:11:12.109Z,18.41
2023-01-22T13:12:29.025Z,19.08
2023-01-22T13:14:03.159Z,19.87
2023-01-22T13:15:34.858Z,19.23
2023-01-22T13:16:39.052Z,19.24
2023-01-22T13:17:41.941Z,19.79
2023-01-22T13:18:51.064Z,25.62
2023-01-22T13:19:54.373Z,28.05
2023-01-22T13:21:06.521Z,24.86
2023-01-22T13:22:27.023Z,25.32
2023-01-22T13:23:32.214Z,30.63
2023-01-22T13:24:35.410Z,29.27
2023-01-22T13:25:37.542Z,26.69
2023-01-22T13:26:39.628Z,29.03
2023-01-22T13:27:48.378Z,32.36
2023-01-22T13:29:16.378Z,37.19
2023-01-22T13:30:28.192Z,32.92
2023-01-22T13:31:30.634Z,33.03
2023-01-22T13:32:32.545Z,39.91
2023-01-22T13:33:34.485Z,38.23
2023-01-22T13:34:36.346Z,36.13
2023-01-22T13:35:44.374Z,31.36
2023-01-22T13:36:49.428Z,29.50
2023-01-22T13:37:51.986Z,28.69
2023-01-22T13:38:59.450Z,27.10
2023-01-22T13:40:21.372Z,25.70
2023-01-22T13:41:29.688Z,23.52
2023-01-22T13:42:34.215Z,22.56
2023-01-22T13:43:40.241Z,22.12
2023-01-22T13:44:48.960Z,23.41
2023-01-22T13:45:54.406Z,25.17
2023-01-22T13:46:56.710Z,24.68
2023-01-22T13:48:04.035Z,23.47
2023-01-22T13:49:24.141Z,21.69
2023-01-22T13:50:29.208Z,21.95
2023-01-22T13:51:34.818Z,22.86
2023-01-22T13:52:36.955Z,24.02
2023-01-22T13:53:57.762Z,25.35
2023-01-22T13:55:12.442Z,25.40
2023-01-22T13:56:20.584Z,26.26
2023-01-22T13:57:22.944Z,25.54
2023-01-22T13:58:48.327Z,25.45
2023-01-22T14:00:01.562Z,26.17
2023-01-22T14:01:03.802Z,25.55
2023-01-22T14:02:32.069Z,23.87
2023-01-22T14:03:34.483Z,23.24
2023-01-22T14:04:40.161Z,24.80
2023-01-22T14:05:42.056Z,25.77
2023-01-22T14:06:49.633Z,24.06
2023-01-22T14:08:13.391Z,21.86
2023-01-22T14:09:31.334Z,24.65
2023-01-22T14:10:33.549Z,25.47
2023-01-22T14:11:40.159Z,23.81
2023-01-22T14:12:42.642Z,22.48
2023-01-22T14:13:47.732Z,23.70
2023-01-22T14:14:50.034Z,23.66
2023-01-22T14:16:01.603Z,23.80
2023-01-22T14:17:03.707Z,23.95
2023-01-22T14:18:07.526Z,24.53
2023-01-22T14:19:09.384Z,22.50